createdAt,value
2018-08-16T00:00:05.235Z,22.93
2018-08-16T00:01:05.248Z,22.91
2018-08-16T00:02:05.259Z,22.92
2018-08-16T00:03:05.258Z,22.93
2018-08-16T00:04:05.284Z,22.93
2018-08-16T00:05:05.262Z,22.86
2018-08-16T00:06:05.337Z,22.86
2018-08-16T00:07:05.307Z,22.84
2018-08-16T00:08:05.337Z,22.86
2018-08-16T00:09:05.521Z,22.86
2018-08-16T00:10:05.351Z,22.81
2018-08-16T00:11:05.398Z,22.92
2018-08-16T00:12:05.430Z,22.92
2018-08-16T00:13:05.386Z,22.88
2018-08-16T00:14:05.392Z,22.88
2018-08-16T00:15:05.421Z,22.89
2018-08-16T00:16:05.404Z,22.89
2018-08-16T00:17:05.494Z,22.80
2018-08-16T00:18:05.508Z,22.86
2018-08-16T00:19:05.443Z,22.76
2018-08-16T00:20:05.475Z,22.93
2018-08-16T00:21:05.476Z,22.86
2018-08-16T00:22:05.489Z,22.83
2018-08-16T00:23:05.549Z,22.91
2018-08-16T00:24:05.494Z,22.83
2018-08-16T00:25:05.557Z,22.76
2018-08-16T00:26:05.554Z,22.74
2018-08-16T00:27:05.550Z,22.78
2018-08-16T00:28:05.591Z,22.74
2018-08-16T00:29:05.575Z,22.77
2018-08-16T00:30:05.713Z,22.80
2018-08-16T00:31:05.627Z,22.77
2018-08-16T00:32:05.607Z,22.76
2018-08-16T00:33:05.638Z,22.80
2018-08-16T00:34:05.628Z,22.81
2018-08-16T00:35:05.654Z,22.78
2018-08-16T00:36:05.696Z,22.80
2018-08-16T00:37:05.731Z,22.73
2018-08-16T00:38:05.669Z,22.81
2018-08-16T00:39:05.693Z,22.84
2018-08-16T00:40:05.714Z,22.77
2018-08-16T00:41:05.709Z,22.80
2018-08-16T00:42:05.760Z,22.70
2018-08-16T00:43:05.753Z,22.68
2018-08-16T00:44:05.800Z,22.68
2018-08-16T00:45:05.790Z,22.70
2018-08-16T00:46:05.782Z,22.70
2018-08-16T00:47:05.812Z,22.71
2018-08-16T00:48:05.847Z,22.68
2018-08-16T00:49:05.806Z,22.68
2018-08-16T00:50:05.817Z,22.74
2018-08-16T00:51:05.836Z,22.67
2018-08-16T00:52:05.833Z,22.68
2018-08-16T00:53:05.899Z,22.71
2018-08-16T00:54:05.937Z,22.65
2018-08-16T00:55:05.880Z,22.62
2018-08-16T00:56:05.909Z,22.61
2018-08-16T00:57:05.935Z,22.65
2018-08-16T00:58:05.929Z,22.61
2018-08-16T00:59:05.982Z,22.59
2018-08-16T01:00:06.009Z,22.63
2018-08-16T01:01:05.943Z,22.74
2018-08-16T01:02:05.968Z,22.61
2018-08-16T01:03:05.969Z,22.63
2018-08-16T01:04:05.994Z,22.62
2018-08-16T01:05:06.041Z,22.61
2018-08-16T01:06:06.038Z,22.56
2018-08-16T01:07:06.044Z,22.65
2018-08-16T01:08:06.047Z,22.62
2018-08-16T01:09:06.058Z,22.63
2018-08-16T01:10:06.107Z,22.62
2018-08-16T01:11:06.084Z,22.59
2018-08-16T01:12:06.094Z,22.65
2018-08-16T01:13:06.133Z,22.56
2018-08-16T01:14:06.108Z,22.56
2018-08-16T01:15:06.166Z,22.56
2018-08-16T01:16:06.149Z,22.56
2018-08-16T01:17:06.150Z,22.53
2018-08-16T01:18:06.172Z,22.49
2018-08-16T01:19:06.171Z,22.47
2018-08-16T01:20:06.244Z,22.55
2018-08-16T01:21:06.248Z,22.44
2018-08-16T01:22:06.201Z,22.46
2018-08-16T01:23:06.214Z,22.52
2018-08-16T01:24:06.209Z,22.51
2018-08-16T01:25:06.344Z,22.56
2018-08-16T01:26:06.271Z,22.56
2018-08-16T01:27:06.290Z,22.52
2018-08-16T01:28:06.278Z,22.52
2018-08-16T01:29:06.281Z,22.55
2018-08-16T01:30:06.287Z,22.53
2018-08-16T01:31:06.342Z,22.53
2018-08-16T01:32:06.344Z,22.44
2018-08-16T01:33:06.334Z,22.53
2018-08-16T01:34:06.335Z,22.47
2018-08-16T01:35:06.391Z,22.43
2018-08-16T01:36:06.370Z,22.43
2018-08-16T01:37:06.396Z,22.49
2018-08-16T01:38:06.420Z,22.41
2018-08-16T01:39:06.415Z,22.44
2018-08-16T01:40:06.403Z,22.36
2018-08-16T01:41:06.445Z,22.37
2018-08-16T01:42:06.429Z,22.38
2018-08-16T01:43:06.500Z,22.43
2018-08-16T01:44:06.470Z,22.38
2018-08-16T01:45:06.487Z,22.36
2018-08-16T01:46:06.492Z,22.36
2018-08-16T01:47:06.541Z,22.36
2018-08-16T01:48:06.584Z,22.33
2018-08-16T01:49:06.529Z,22.37
2018-08-16T01:50:06.533Z,22.33
2018-08-16T01:51:06.577Z,22.36
2018-08-16T01:52:06.588Z,22.38
2018-08-16T01:53:06.594Z,22.28
2018-08-16T01:54:06.592Z,22.34
2018-08-16T01:55:06.606Z,22.34
2018-08-16T01:56:06.637Z,22.31
2018-08-16T01:57:06.649Z,22.33
2018-08-16T01:58:06.646Z,22.33
2018-08-16T01:59:06.648Z,22.28
2018-08-16T02:00:06.673Z,22.31
2018-08-16T02:01:06.726Z,22.25
2018-08-16T02:02:06.673Z,22.26
2018-08-16T02:03:06.681Z,22.23
2018-08-16T02:04:06.697Z,22.23
2018-08-16T02:05:06.720Z,22.25
2018-08-16T02:06:06.730Z,22.19
2018-08-16T02:07:06.749Z,22.21
2018-08-16T02:08:06.746Z,22.19
2018-08-16T02:09:06.748Z,22.22
2018-08-16T02:10:06.776Z,22.26
2018-08-16T02:11:06.827Z,22.28
2018-08-16T02:12:06.800Z,22.19
2018-08-16T02:13:06.826Z,22.25
2018-08-16T02:14:06.820Z,22.23
2018-08-16T02:15:06.827Z,22.23
2018-08-16T02:16:06.848Z,22.21
2018-08-16T02:17:06.842Z,22.22
2018-08-16T02:18:06.932Z,22.22
2018-08-16T02:19:06.881Z,22.18
2018-08-16T02:20:06.922Z,22.26
2018-08-16T02:21:06.912Z,22.25
2018-08-16T02:22:06.905Z,22.14
2018-08-16T02:23:06.988Z,22.23
2018-08-16T02:24:06.984Z,22.26
2018-08-16T02:25:06.961Z,22.26
2018-08-16T02:26:06.941Z,22.21
2018-08-16T02:27:07.004Z,22.22
2018-08-16T02:28:06.970Z,22.28
2018-08-16T02:29:07.012Z,22.22
2018-08-16T02:30:07.005Z,22.19
2018-08-16T02:31:07.082Z,22.18
2018-08-16T02:32:07.031Z,22.18
2018-08-16T02:33:07.052Z,22.15
2018-08-16T02:34:07.091Z,22.12
2018-08-16T02:35:07.069Z,22.10
2018-08-16T02:36:07.153Z,22.23
2018-08-16T02:37:07.098Z,22.15
2018-08-16T02:38:07.149Z,22.21
2018-08-16T02:39:07.107Z,22.22
2018-08-16T02:40:07.147Z,22.19
2018-08-16T02:41:07.158Z,22.21
2018-08-16T02:42:07.150Z,22.12
2018-08-16T02:43:07.205Z,22.16
2018-08-16T02:44:07.169Z,22.14
2018-08-16T02:45:07.174Z,22.18
2018-08-16T02:46:07.196Z,22.19
2018-08-16T02:47:07.185Z,22.12
2018-08-16T02:48:07.270Z,22.15
2018-08-16T02:49:07.219Z,22.14
2018-08-16T02:50:07.243Z,22.04
2018-08-16T02:51:07.255Z,22.12
2018-08-16T02:52:07.266Z,22.10
2018-08-16T02:53:07.305Z,22.08
2018-08-16T02:54:07.296Z,22.04
2018-08-16T02:55:07.344Z,22.07
2018-08-16T02:56:07.329Z,22.12
2018-08-16T02:57:07.337Z,22.12
2018-08-16T02:58:07.346Z,22.14
2018-08-16T02:59:07.347Z,22.06
2018-08-16T03:00:07.406Z,22.08
2018-08-16T03:01:07.359Z,22.08
2018-08-16T03:02:07.363Z,22.04
2018-08-16T03:03:07.398Z,22.04
2018-08-16T03:04:07.396Z,21.99
2018-08-16T03:05:07.449Z,22.07
2018-08-16T03:06:07.480Z,22.03
2018-08-16T03:07:07.480Z,22.01
2018-08-16T03:08:07.452Z,22.00
2018-08-16T03:09:07.449Z,22.07
2018-08-16T03:10:07.478Z,22.07
2018-08-16T03:11:07.507Z,22.08
2018-08-16T03:12:07.524Z,22.03
2018-08-16T03:13:15.696Z,22.01
2018-08-16T03:14:07.516Z,21.97
2018-08-16T03:15:07.515Z,21.96
2018-08-16T03:16:07.565Z,21.99
2018-08-16T03:17:07.541Z,21.94
2018-08-16T03:18:07.584Z,21.96
2018-08-16T03:19:07.569Z,21.92
2018-08-16T03:20:07.601Z,21.91
2018-08-16T03:21:07.657Z,21.88
2018-08-16T03:22:07.627Z,21.89
2018-08-16T03:23:07.681Z,21.94
2018-08-16T03:24:07.647Z,21.99
2018-08-16T03:25:07.644Z,21.99
2018-08-16T03:26:07.659Z,22.01
2018-08-16T03:27:07.701Z,21.91
2018-08-16T03:28:07.678Z,21.84
2018-08-16T03:29:07.711Z,21.94
2018-08-16T03:30:07.708Z,21.92
2018-08-16T03:31:07.718Z,21.91
2018-08-16T03:32:07.748Z,21.84
2018-08-16T03:33:07.790Z,21.89
2018-08-16T03:34:07.732Z,21.89
2018-08-16T03:35:07.761Z,21.92
2018-08-16T03:36:07.774Z,21.88
2018-08-16T03:37:07.779Z,21.83
2018-08-16T03:38:07.818Z,21.80
2018-08-16T03:39:07.800Z,21.81
2018-08-16T03:40:07.835Z,21.84
2018-08-16T03:41:07.849Z,21.89
2018-08-16T03:42:07.867Z,21.85
2018-08-16T03:43:07.909Z,21.85
2018-08-16T03:44:07.928Z,21.85
2018-08-16T03:45:07.889Z,21.92
2018-08-16T03:46:07.895Z,21.77
2018-08-16T03:47:07.911Z,21.77
2018-08-16T03:48:07.938Z,21.84
2018-08-16T03:49:07.963Z,21.88
2018-08-16T03:50:07.919Z,21.81
2018-08-16T03:51:07.971Z,21.84
2018-08-16T03:52:07.981Z,21.84
2018-08-16T03:53:07.991Z,21.83
2018-08-16T03:54:08.043Z,21.84
2018-08-16T03:55:08.022Z,21.84
2018-08-16T03:56:08.012Z,21.80
2018-08-16T03:57:08.023Z,21.84
2018-08-16T03:58:08.020Z,21.88
2018-08-16T03:59:08.074Z,21.81
2018-08-16T04:00:08.069Z,21.81
2018-08-16T04:01:08.060Z,21.78
2018-08-16T04:02:08.095Z,21.84
2018-08-16T04:03:08.112Z,21.84
2018-08-16T04:04:08.118Z,21.80
2018-08-16T04:05:08.113Z,21.77
2018-08-16T04:06:08.116Z,21.78
2018-08-16T04:07:08.121Z,21.80
2018-08-16T04:08:08.206Z,21.83
2018-08-16T04:09:08.153Z,21.80
2018-08-16T04:10:08.203Z,21.77
2018-08-16T04:11:08.170Z,21.83
2018-08-16T04:12:08.193Z,21.88
2018-08-16T04:13:08.227Z,21.80
2018-08-16T04:14:08.246Z,21.83
2018-08-16T04:15:08.248Z,21.77
2018-08-16T04:16:08.259Z,21.80
2018-08-16T04:17:08.245Z,21.81
2018-08-16T04:18:08.257Z,21.91
2018-08-16T04:19:08.260Z,21.77
2018-08-16T04:20:08.338Z,21.85
2018-08-16T04:21:08.353Z,21.83
2018-08-16T04:22:08.303Z,21.85
2018-08-16T04:23:08.353Z,21.89
2018-08-16T04:24:08.369Z,21.94
2018-08-16T04:25:08.348Z,21.92
2018-08-16T04:26:08.388Z,21.85
2018-08-16T04:27:08.394Z,21.94
2018-08-16T04:28:08.383Z,21.97
2018-08-16T04:29:08.411Z,21.97
2018-08-16T04:30:08.416Z,21.99
2018-08-16T04:31:08.402Z,22.08
2018-08-16T04:32:08.437Z,22.03
2018-08-16T04:33:08.441Z,22.07
2018-08-16T04:34:08.443Z,22.00
2018-08-16T04:35:08.554Z,22.12
2018-08-16T04:36:08.584Z,22.14
2018-08-16T04:37:08.491Z,22.19
2018-08-16T04:38:08.562Z,22.19
2018-08-16T04:39:08.510Z,22.15
2018-08-16T04:40:08.516Z,22.16
2018-08-16T04:41:08.534Z,22.14
2018-08-16T04:42:08.677Z,22.31
2018-08-16T04:43:08.603Z,22.22
2018-08-16T04:44:08.639Z,22.30
2018-08-16T04:45:08.630Z,22.21
2018-08-16T04:46:08.637Z,22.26
2018-08-16T04:47:08.597Z,22.31
2018-08-16T04:48:08.660Z,22.37
2018-08-16T04:49:08.627Z,22.36
2018-08-16T04:50:08.652Z,22.36
2018-08-16T04:51:08.673Z,22.44
2018-08-16T04:52:08.680Z,22.38
2018-08-16T04:53:08.683Z,22.43
2018-08-16T04:54:08.681Z,22.52
2018-08-16T04:55:08.670Z,22.51
2018-08-16T04:56:08.784Z,22.49
2018-08-16T04:57:08.717Z,22.63
2018-08-16T04:58:08.777Z,22.65
2018-08-16T04:59:08.727Z,22.65
2018-08-16T05:00:08.766Z,22.74
2018-08-16T05:01:08.753Z,22.73
2018-08-16T05:02:08.781Z,22.74
2018-08-16T05:03:08.833Z,22.83
2018-08-16T05:04:08.800Z,22.78
2018-08-16T05:05:08.821Z,22.76
2018-08-16T05:06:08.834Z,22.76
2018-08-16T05:07:08.852Z,22.78
2018-08-16T05:08:08.893Z,22.86
2018-08-16T05:09:08.866Z,22.88
2018-08-16T05:10:08.920Z,22.93
2018-08-16T05:11:08.943Z,22.98
2018-08-16T05:12:08.919Z,23.02
2018-08-16T05:13:08.927Z,23.11
2018-08-16T05:14:08.943Z,23.16
2018-08-16T05:15:08.996Z,23.17
2018-08-16T05:16:08.986Z,23.16
2018-08-16T05:17:08.984Z,23.20
2018-08-16T05:18:08.958Z,23.25
2018-08-16T05:19:09.080Z,23.28
2018-08-16T05:20:09.024Z,23.37
2018-08-16T05:21:09.013Z,23.33
2018-08-16T05:22:09.034Z,23.39
2018-08-16T05:23:09.114Z,23.37
2018-08-16T05:24:09.065Z,23.54
2018-08-16T05:25:09.130Z,23.44
2018-08-16T05:26:09.070Z,23.42
2018-08-16T05:27:09.109Z,23.51
2018-08-16T05:28:09.114Z,23.54
2018-08-16T05:29:09.115Z,23.51
2018-08-16T05:30:09.108Z,23.56
2018-08-16T05:31:09.185Z,23.56
2018-08-16T05:32:09.154Z,23.63
2018-08-16T05:33:09.187Z,23.71
2018-08-16T05:34:09.182Z,23.76
2018-08-16T05:35:09.207Z,23.79
2018-08-16T05:36:09.201Z,23.82
2018-08-16T05:37:09.200Z,23.79
2018-08-16T05:38:09.230Z,23.82
2018-08-16T05:39:09.300Z,23.92
2018-08-16T05:40:09.264Z,23.92
2018-08-16T05:41:09.278Z,24.00
2018-08-16T05:42:09.280Z,23.99
2018-08-16T05:43:09.382Z,24.09
2018-08-16T05:44:09.293Z,24.16
2018-08-16T05:45:09.402Z,24.13
2018-08-16T05:46:09.341Z,24.19
2018-08-16T05:47:09.334Z,24.24
2018-08-16T05:48:09.382Z,24.32
2018-08-16T05:49:09.382Z,24.36
2018-08-16T05:50:09.422Z,24.37
2018-08-16T05:51:09.427Z,24.46
2018-08-16T05:52:09.420Z,24.55
2018-08-16T05:53:09.485Z,24.41
2018-08-16T05:54:09.488Z,24.48
2018-08-16T05:55:09.465Z,24.51
2018-08-16T05:56:09.491Z,24.51
2018-08-16T05:57:09.495Z,24.62
2018-08-16T05:58:09.544Z,24.59
2018-08-16T05:59:09.504Z,24.75
2018-08-16T06:00:09.569Z,24.71
2018-08-16T06:01:09.539Z,24.71
2018-08-16T06:02:09.550Z,24.75
2018-08-16T06:03:09.653Z,24.84
2018-08-16T06:04:09.688Z,24.86
2018-08-16T06:05:09.594Z,24.96
2018-08-16T06:06:09.612Z,24.89
2018-08-16T06:07:09.598Z,24.96
2018-08-16T06:08:09.633Z,25.00
2018-08-16T06:09:09.669Z,25.06
2018-08-16T06:10:09.679Z,25.09
2018-08-16T06:11:09.682Z,25.09
2018-08-16T06:12:09.749Z,25.15
2018-08-16T06:13:09.720Z,25.11
2018-08-16T06:14:09.776Z,25.11
2018-08-16T06:15:09.813Z,25.24
2018-08-16T06:16:09.743Z,25.21
2018-08-16T06:17:09.743Z,25.22
2018-08-16T06:18:09.757Z,25.34
2018-08-16T06:19:09.793Z,25.26
2018-08-16T06:20:09.825Z,25.25
2018-08-16T06:21:09.796Z,25.36
2018-08-16T06:22:09.857Z,25.36
2018-08-16T06:23:09.867Z,25.34
2018-08-16T06:24:09.955Z,25.40
2018-08-16T06:25:09.877Z,25.44
2018-08-16T06:26:09.997Z,25.52
2018-08-16T06:27:09.899Z,25.46
2018-08-16T06:28:09.922Z,25.54
2018-08-16T06:29:09.942Z,25.54
2018-08-16T06:30:09.971Z,25.56
2018-08-16T06:31:10.020Z,25.55
2018-08-16T06:32:10.059Z,25.63
2018-08-16T06:33:09.967Z,25.58
2018-08-16T06:34:10.015Z,25.59
2018-08-16T06:35:09.997Z,25.68
2018-08-16T06:36:10.013Z,25.61
2018-08-16T06:37:10.093Z,25.67
2018-08-16T06:38:10.033Z,25.66
2018-08-16T06:39:10.067Z,25.66
2018-08-16T06:40:10.083Z,25.66
2018-08-16T06:41:10.111Z,25.76
2018-08-16T06:42:10.163Z,25.76
2018-08-16T06:43:10.165Z,25.78
2018-08-16T06:44:10.149Z,25.73
2018-08-16T06:45:10.134Z,25.77
2018-08-16T06:46:10.272Z,25.78
2018-08-16T06:47:10.186Z,25.85
2018-08-16T06:48:10.195Z,25.88
2018-08-16T06:49:10.266Z,25.85
2018-08-16T06:50:10.229Z,25.86
2018-08-16T06:51:10.265Z,25.80
2018-08-16T06:52:10.269Z,25.78
2018-08-16T06:53:10.274Z,25.71
2018-08-16T06:54:10.304Z,25.88
2018-08-16T06:55:10.291Z,25.88
2018-08-16T06:56:10.317Z,25.88
2018-08-16T06:57:10.338Z,25.71
2018-08-16T06:58:10.408Z,25.78
2018-08-16T06:59:10.386Z,25.81
2018-08-16T07:00:10.431Z,25.81
2018-08-16T07:01:10.398Z,25.85
2018-08-16T07:02:10.407Z,25.80
2018-08-16T07:03:10.406Z,25.83
2018-08-16T07:04:10.487Z,25.85
2018-08-16T07:05:10.506Z,25.88
2018-08-16T07:06:10.496Z,25.85
2018-08-16T07:07:10.468Z,25.88
2018-08-16T07:08:10.505Z,25.85
2018-08-16T07:09:10.973Z,25.86
2018-08-16T07:10:10.521Z,25.78
2018-08-16T07:11:10.529Z,25.76
2018-08-16T07:12:10.687Z,25.66
2018-08-16T07:13:10.550Z,25.66
2018-08-16T07:14:10.590Z,25.68
2018-08-16T07:15:10.663Z,25.70
2018-08-16T07:16:10.649Z,25.76
2018-08-16T07:17:10.614Z,25.77
2018-08-16T07:18:10.626Z,25.80
2018-08-16T07:19:10.687Z,25.63
2018-08-16T07:20:10.691Z,25.71
2018-08-16T07:21:10.689Z,25.73
2018-08-16T07:22:10.738Z,25.66
2018-08-16T07:23:10.706Z,25.68
2018-08-16T07:24:10.722Z,25.58
2018-08-16T07:25:10.766Z,25.61
2018-08-16T07:26:10.766Z,25.63
2018-08-16T07:27:10.809Z,25.59
2018-08-16T07:28:10.785Z,25.51
2018-08-16T07:29:10.847Z,25.56
2018-08-16T07:30:10.864Z,25.48
2018-08-16T07:31:10.838Z,25.56
2018-08-16T07:32:10.852Z,25.59
2018-08-16T07:33:10.842Z,25.62
2018-08-16T07:34:10.884Z,25.61
2018-08-16T07:35:10.906Z,25.59
2018-08-16T07:36:10.897Z,25.52
2018-08-16T07:37:10.938Z,25.43
2018-08-16T07:38:10.937Z,25.49
2018-08-16T07:39:10.914Z,25.58
2018-08-16T07:40:10.962Z,25.54
2018-08-16T07:41:10.969Z,25.56
2018-08-16T07:42:10.995Z,25.51
2018-08-16T07:43:11.000Z,25.54
2018-08-16T07:44:11.076Z,25.54
2018-08-16T07:45:11.063Z,25.52
2018-08-16T07:46:11.101Z,25.46
2018-08-16T07:47:11.121Z,25.48
2018-08-16T07:48:11.055Z,25.44
2018-08-16T07:49:11.089Z,25.46
2018-08-16T07:50:11.098Z,25.36
2018-08-16T07:51:11.193Z,25.22
2018-08-16T07:52:11.202Z,25.31
2018-08-16T07:53:11.127Z,25.39
2018-08-16T07:54:11.126Z,25.34
2018-08-16T07:55:11.146Z,25.31
2018-08-16T07:56:11.165Z,25.24
2018-08-16T07:57:11.209Z,25.19
2018-08-16T07:58:11.193Z,25.24
2018-08-16T07:59:11.253Z,25.22
2018-08-16T08:00:11.226Z,25.31
2018-08-16T08:01:11.245Z,25.34
2018-08-16T08:02:11.256Z,25.34
2018-08-16T08:03:11.257Z,25.30
2018-08-16T08:04:11.329Z,25.34
2018-08-16T08:05:11.341Z,25.36
2018-08-16T08:06:11.299Z,25.34
2018-08-16T08:07:11.357Z,25.40
2018-08-16T08:08:11.325Z,25.36
2018-08-16T08:09:11.476Z,25.26
2018-08-16T08:10:11.412Z,25.37
2018-08-16T08:11:11.360Z,25.33
2018-08-16T08:12:11.397Z,25.33
2018-08-16T08:13:11.413Z,25.31
2018-08-16T08:14:11.412Z,25.30
2018-08-16T08:15:11.489Z,25.25
2018-08-16T08:16:11.436Z,25.26
2018-08-16T08:17:11.464Z,25.26
2018-08-16T08:18:11.481Z,25.29
2018-08-16T08:19:11.575Z,25.26
2018-08-16T08:20:11.480Z,25.33
2018-08-16T08:21:11.500Z,25.39
2018-08-16T08:22:11.528Z,25.30
2018-08-16T08:23:11.532Z,25.34
2018-08-16T08:24:11.560Z,25.36
2018-08-16T08:25:11.591Z,25.36
2018-08-16T08:26:11.627Z,25.33
2018-08-16T08:27:11.588Z,25.36
2018-08-16T08:28:11.600Z,25.30
2018-08-16T08:29:11.659Z,25.37
2018-08-16T08:30:11.645Z,25.46
2018-08-16T08:31:11.697Z,25.30
2018-08-16T08:32:11.727Z,25.36
2018-08-16T08:33:11.688Z,25.36
2018-08-16T08:34:11.697Z,25.29
2018-08-16T08:35:11.726Z,25.34
2018-08-16T08:36:11.816Z,25.36
2018-08-16T08:37:11.732Z,25.34
2018-08-16T08:38:11.762Z,25.30
2018-08-16T08:39:11.780Z,25.37
2018-08-16T08:40:11.794Z,25.29
2018-08-16T08:41:11.845Z,25.36
2018-08-16T08:42:11.802Z,25.30
2018-08-16T08:43:11.866Z,25.31
2018-08-16T08:44:11.810Z,25.30
2018-08-16T08:45:11.864Z,25.34
2018-08-16T08:46:11.877Z,25.36
2018-08-16T08:47:11.858Z,25.30
2018-08-16T08:48:11.924Z,25.30
2018-08-16T08:49:11.935Z,25.30
2018-08-16T08:50:11.947Z,25.39
2018-08-16T08:51:11.915Z,25.31
2018-08-16T08:52:11.969Z,25.33
2018-08-16T08:53:11.943Z,25.29
2018-08-16T08:54:12.022Z,25.43
2018-08-16T08:55:11.999Z,25.31
2018-08-16T08:56:12.004Z,25.25
2018-08-16T08:57:12.013Z,25.31
2018-08-16T08:58:12.028Z,25.33
2018-08-16T08:59:12.123Z,25.39
2018-08-16T09:00:12.122Z,25.40
2018-08-16T09:01:12.067Z,25.48
2018-08-16T09:02:12.080Z,25.46
2018-08-16T09:03:12.106Z,25.48
2018-08-16T09:04:12.089Z,25.41
2018-08-16T09:05:12.266Z,25.46
2018-08-16T09:06:12.149Z,25.54
2018-08-16T09:07:12.170Z,25.55
2018-08-16T09:08:12.200Z,25.55
2018-08-16T09:09:12.194Z,25.55
2018-08-16T09:10:12.237Z,25.55
2018-08-16T09:11:12.198Z,25.55
2018-08-16T09:12:12.203Z,25.46
2018-08-16T09:13:12.211Z,25.40
2018-08-16T09:14:12.272Z,25.43
2018-08-16T09:15:12.357Z,25.36
2018-08-16T09:16:12.339Z,25.37
2018-08-16T09:17:12.292Z,25.41
2018-08-16T09:18:12.311Z,25.54
2018-08-16T09:19:12.359Z,25.51
2018-08-16T09:20:12.333Z,25.52
2018-08-16T09:21:12.632Z,25.48
2018-08-16T09:22:12.367Z,25.56
2018-08-16T09:23:12.376Z,25.56
2018-08-16T09:24:12.528Z,25.58
2018-08-16T09:25:12.393Z,25.59
2018-08-16T09:26:12.407Z,25.58
2018-08-16T09:27:12.480Z,25.54
2018-08-16T09:28:12.461Z,25.56
2018-08-16T09:29:12.470Z,25.54
2018-08-16T09:30:12.482Z,25.59
2018-08-16T09:31:12.519Z,25.68
2018-08-16T09:32:12.513Z,25.70
2018-08-16T09:33:12.539Z,25.62
2018-08-16T09:34:12.529Z,25.74
2018-08-16T09:35:12.587Z,25.76
2018-08-16T09:36:12.624Z,25.76
2018-08-16T09:37:12.615Z,25.74
2018-08-16T09:38:12.582Z,25.73
2018-08-16T09:39:12.615Z,25.78
2018-08-16T09:40:12.595Z,25.78
2018-08-16T09:41:12.671Z,25.74
2018-08-16T09:42:12.627Z,25.73
2018-08-16T09:43:12.661Z,25.73
2018-08-16T09:44:12.672Z,25.73
2018-08-16T09:45:12.734Z,25.74
2018-08-16T09:46:12.744Z,25.76
2018-08-16T09:47:12.702Z,25.74
2018-08-16T09:48:12.728Z,25.85
2018-08-16T09:49:12.724Z,25.81
2018-08-16T09:50:12.770Z,25.85
2018-08-16T09:51:12.837Z,25.86
2018-08-16T09:52:12.795Z,25.89
2018-08-16T09:53:12.811Z,25.92
2018-08-16T09:54:12.794Z,25.96
2018-08-16T09:55:12.822Z,25.95
2018-08-16T09:56:12.829Z,25.93
2018-08-16T09:57:12.829Z,25.93
2018-08-16T09:58:12.886Z,25.96
2018-08-16T09:59:12.874Z,26.01
2018-08-16T10:00:12.902Z,26.04
2018-08-16T10:01:12.907Z,25.91
2018-08-16T10:02:13.091Z,26.03
2018-08-16T10:03:12.970Z,25.99
2018-08-16T10:04:12.988Z,25.89
2018-08-16T10:05:12.992Z,25.98
2018-08-16T10:06:12.970Z,25.99
2018-08-16T10:07:12.991Z,25.99
2018-08-16T10:08:12.995Z,25.99
2018-08-16T10:09:13.000Z,26.04
2018-08-16T10:10:13.115Z,25.98
2018-08-16T10:11:13.076Z,26.07
2018-08-16T10:12:13.079Z,25.99
2018-08-16T10:13:13.088Z,25.99
2018-08-16T10:14:13.108Z,26.04
2018-08-16T10:15:13.144Z,26.03
2018-08-16T10:16:13.116Z,26.04
2018-08-16T10:17:13.119Z,26.03
2018-08-16T10:18:13.214Z,25.96
2018-08-16T10:19:13.148Z,26.01
2018-08-16T10:20:13.222Z,26.04
2018-08-16T10:21:13.191Z,26.06
2018-08-16T10:22:13.197Z,26.11
2018-08-16T10:23:13.247Z,26.11
2018-08-16T10:24:13.240Z,26.15
2018-08-16T10:25:13.277Z,26.11
2018-08-16T10:26:13.287Z,26.10
2018-08-16T10:27:13.346Z,25.98
2018-08-16T10:28:13.289Z,26.04
2018-08-16T10:29:13.293Z,25.98
2018-08-16T10:30:13.314Z,25.99
2018-08-16T10:31:13.310Z,25.88
2018-08-16T10:32:13.412Z,26.07
2018-08-16T10:33:13.376Z,26.08
2018-08-16T10:34:13.383Z,26.10
2018-08-16T10:35:13.383Z,26.18
2018-08-16T10:36:13.441Z,26.16
2018-08-16T10:37:13.557Z,26.04
2018-08-16T10:38:13.423Z,26.07
2018-08-16T10:39:13.449Z,26.03
2018-08-16T10:40:13.479Z,26.18
2018-08-16T10:41:13.452Z,26.10
2018-08-16T10:42:13.506Z,26.10
2018-08-16T10:43:13.512Z,26.16
2018-08-16T10:44:13.707Z,26.13
2018-08-16T10:45:13.515Z,26.16
2018-08-16T10:46:13.574Z,26.13
2018-08-16T10:47:13.566Z,26.18
2018-08-16T10:48:13.571Z,26.33
2018-08-16T10:49:13.595Z,26.27
2018-08-16T10:50:13.643Z,26.33
2018-08-16T10:51:13.665Z,26.24
2018-08-16T10:52:13.643Z,26.29
2018-08-16T10:53:13.634Z,26.29
2018-08-16T10:54:13.659Z,26.31
2018-08-16T10:55:13.702Z,26.41
2018-08-16T10:56:13.674Z,26.22
2018-08-16T10:57:13.754Z,26.31
2018-08-16T10:58:13.702Z,26.34
2018-08-16T10:59:13.751Z,26.33
2018-08-16T11:00:13.758Z,26.31
2018-08-16T11:01:13.817Z,26.39
2018-08-16T11:02:13.821Z,26.39
2018-08-16T11:03:13.832Z,26.34
2018-08-16T11:04:13.803Z,26.36
2018-08-16T11:05:13.813Z,26.39
2018-08-16T11:06:13.872Z,26.46
2018-08-16T11:07:13.844Z,26.48
2018-08-16T11:08:13.903Z,26.46
2018-08-16T11:09:13.913Z,26.45
2018-08-16T11:10:13.968Z,26.46
2018-08-16T11:11:13.926Z,26.51
2018-08-16T11:12:13.928Z,26.49
2018-08-16T11:13:13.941Z,26.51
2018-08-16T11:14:13.997Z,26.46
2018-08-16T11:15:13.954Z,26.36
2018-08-16T11:16:13.990Z,26.33
2018-08-16T11:17:14.027Z,26.36
2018-08-16T11:18:14.015Z,26.36
2018-08-16T11:19:14.082Z,26.37
2018-08-16T11:20:14.030Z,26.42
2018-08-16T11:21:14.057Z,26.37
2018-08-16T11:22:14.068Z,26.41
2018-08-16T11:23:14.072Z,26.45
2018-08-16T11:24:14.122Z,26.41
2018-08-16T11:25:14.096Z,26.48
2018-08-16T11:26:14.115Z,26.45
2018-08-16T11:27:14.138Z,26.48
2018-08-16T11:28:14.152Z,26.46
2018-08-16T11:29:14.195Z,26.49
2018-08-16T11:30:14.204Z,26.51
2018-08-16T11:31:14.232Z,26.45
2018-08-16T11:32:14.203Z,26.52
2018-08-16T11:33:14.234Z,26.48
2018-08-16T11:34:14.247Z,26.48
2018-08-16T11:35:14.328Z,26.52
2018-08-16T11:36:14.299Z,26.53
2018-08-16T11:37:14.322Z,26.59
2018-08-16T11:38:14.333Z,26.61
2018-08-16T11:39:14.308Z,26.63
2018-08-16T11:40:14.338Z,26.53
2018-08-16T11:41:14.341Z,26.64
2018-08-16T11:42:14.389Z,26.68
2018-08-16T11:43:14.480Z,26.60
2018-08-16T11:44:14.371Z,26.64
2018-08-16T11:45:14.378Z,26.64
2018-08-16T11:46:14.420Z,26.64
2018-08-16T11:47:14.438Z,26.60
2018-08-16T11:48:14.455Z,26.59
2018-08-16T11:49:14.484Z,26.67
2018-08-16T11:50:14.458Z,26.68
2018-08-16T11:51:14.507Z,26.68
2018-08-16T11:52:14.498Z,26.78
2018-08-16T11:53:14.504Z,26.74
2018-08-16T11:54:14.586Z,26.79
2018-08-16T11:55:14.594Z,26.73
2018-08-16T11:56:14.543Z,26.74
2018-08-16T11:57:14.563Z,26.68
2018-08-16T11:58:14.619Z,26.73
2018-08-16T11:59:14.609Z,26.70
2018-08-16T12:00:15.080Z,26.68
2018-08-16T12:01:14.667Z,26.81
2018-08-16T12:02:14.713Z,26.81
2018-08-16T12:03:14.704Z,26.79
2018-08-16T12:04:14.677Z,26.78
2018-08-16T12:05:14.703Z,26.82
2018-08-16T12:06:14.784Z,26.81
2018-08-16T12:07:14.792Z,26.83
2018-08-16T12:08:14.719Z,26.78
2018-08-16T12:09:14.745Z,26.81
2018-08-16T12:10:14.740Z,26.81
2018-08-16T12:11:14.796Z,26.76
2018-08-16T12:12:14.814Z,26.71
2018-08-16T12:13:14.873Z,26.73
2018-08-16T12:14:14.824Z,26.78
2018-08-16T12:15:14.908Z,26.81
2018-08-16T12:16:14.839Z,26.79
2018-08-16T12:17:14.910Z,26.79
2018-08-16T12:18:14.897Z,26.73
2018-08-16T12:19:14.892Z,26.79
2018-08-16T12:20:14.909Z,26.74
2018-08-16T12:21:14.918Z,26.78
2018-08-16T12:22:14.949Z,26.82
2018-08-16T12:23:14.994Z,26.89
2018-08-16T12:24:15.026Z,26.71
2018-08-16T12:25:14.958Z,26.76
2018-08-16T12:26:14.997Z,26.88
2018-08-16T12:27:15.016Z,26.82
2018-08-16T12:28:15.064Z,26.89
2018-08-16T12:29:15.088Z,27.00
2018-08-16T12:30:15.049Z,26.96
2018-08-16T12:31:15.057Z,26.96
2018-08-16T12:32:15.068Z,27.00
2018-08-16T12:33:15.093Z,26.98
2018-08-16T12:34:15.136Z,27.00
2018-08-16T12:35:15.172Z,27.00
2018-08-16T12:36:15.130Z,26.91
2018-08-16T12:37:15.152Z,27.01
2018-08-16T12:38:15.174Z,27.00
2018-08-16T12:39:15.204Z,26.92
2018-08-16T12:40:15.234Z,27.00
2018-08-16T12:41:15.263Z,26.88
2018-08-16T12:42:15.215Z,27.00
2018-08-16T12:43:15.224Z,26.98
2018-08-16T12:44:15.268Z,26.93
2018-08-16T12:45:15.339Z,27.04
2018-08-16T12:46:15.455Z,27.04
2018-08-16T12:47:15.369Z,27.05
2018-08-16T12:48:15.338Z,27.10
2018-08-16T12:49:15.348Z,27.03
2018-08-16T12:50:15.343Z,27.10
2018-08-16T12:51:15.390Z,27.03
2018-08-16T12:52:15.423Z,27.01